Terminal Aerodrome Forecast
Issued by NWS Twin Cities, MN

Home | Current Version | Previous Version | Graphics & Text | Print | Product List | Glossary On
Versions: 1 2 3 4 5 6 7 8 9 10 11 12 13 14 15 16 17 18 19 20 21 22 23 24
000
FTUS43 KMPX 210714 AAA
TAFSTC
TAF AMD
KSTC 210714Z 2107/2206 VRB05KT P6SM SKC
     FM210800 23003KT 3SM BR SCT007
      TEMPO 2109/2113 1/2SM FG BKN003
     FM211500 18007KT P6SM SCT050
     FM211800 22009KT P6SM SCT150
     FM220000 24006KT P6SM SCT250=

USA.gov is the U.S. government's official web portal to all federal, state and local government web resources and services.